createdAt,value
2023-05-19T00:01:19.220Z,99323.59
2023-05-19T00:03:54.495Z,99321.84
2023-05-19T00:06:24.225Z,99316.63
2023-05-19T00:08:57.918Z,99317.56
2023-05-19T00:11:27.036Z,99309.69
2023-05-19T00:13:55.024Z,99315.81
2023-05-19T00:16:23.314Z,99310.56
2023-05-19T00:18:50.375Z,99316.72
2023-05-19T00:21:17.233Z,99312.38
2023-05-19T00:23:44.105Z,99309.75
2023-05-19T00:26:11.041Z,99308.91
2023-05-19T00:28:37.748Z,99313.28
2023-05-19T00:31:05.853Z,99314.16
2023-05-19T00:33:34.034Z,99317.69
2023-05-19T00:36:05.883Z,99304.56
2023-05-19T00:38:34.135Z,99292.31
2023-05-19T00:41:01.803Z,99304.59
2023-05-19T00:43:30.293Z,99303.72
2023-05-19T00:45:58.060Z,99299.34
2023-05-19T00:48:27.855Z,99302.03
2023-05-19T00:51:02.360Z,99305.53
2023-05-19T00:53:29.542Z,99301.13
2023-05-19T00:55:56.584Z,99304.63
2023-05-19T00:58:24.122Z,99298.56
2023-05-19T01:00:50.834Z,99308.13
2023-05-19T01:03:20.613Z,99302.94
2023-05-19T01:05:53.859Z,99307.28
2023-05-19T01:08:20.568Z,99298.56
2023-05-19T01:10:47.356Z,99302.06
2023-05-19T01:13:14.263Z,99298.59
2023-05-19T01:15:59.941Z,99299.44
2023-05-19T01:18:36.895Z,99304.72
2023-05-19T01:21:25.882Z,99302.94
2023-05-19T01:24:09.242Z,99303.00
2023-05-19T01:26:44.983Z,99306.50
2023-05-19T01:29:53.257Z,99299.53
2023-05-19T01:32:21.245Z,99296.94
2023-05-19T01:34:50.805Z,99301.31
2023-05-19T01:37:18.150Z,99295.19
2023-05-19T01:39:45.174Z,99292.59
2023-05-19T01:42:13.479Z,99293.44
2023-05-19T01:44:40.505Z,99298.72
2023-05-19T01:47:07.468Z,99294.34
2023-05-19T01:49:34.159Z,99302.22
2023-05-19T01:52:00.879Z,99292.63
2023-05-19T01:54:27.447Z,99298.72
2023-05-19T01:57:16.074Z,99293.50
2023-05-19T02:00:04.134Z,99295.28
2023-05-19T02:02:55.947Z,99296.16
2023-05-19T02:05:48.511Z,99299.66
2023-05-19T02:08:20.808Z,99300.56
2023-05-19T02:10:58.230Z,99299.66
2023-05-19T02:13:30.336Z,99291.84
2023-05-19T02:16:04.383Z,99294.47
2023-05-19T02:18:33.411Z,99290.13
2023-05-19T02:21:00.271Z,99290.97
2023-05-19T02:23:26.994Z,99285.75
2023-05-19T02:25:53.572Z,99279.66
2023-05-19T02:28:20.140Z,99289.25
2023-05-19T02:30:46.798Z,99284.88
2023-05-19T02:33:13.432Z,99282.28
2023-05-19T02:35:40.089Z,99285.75
2023-05-19T02:38:06.744Z,99278.81
2023-05-19T02:40:33.437Z,99284.91
2023-05-19T02:43:00.198Z,99275.31
2023-05-19T02:45:28.768Z,99280.56
2023-05-19T02:47:55.525Z,99278.81
2023-05-19T02:50:22.723Z,99283.16
2023-05-19T02:52:49.337Z,99277.94
2023-05-19T02:55:17.716Z,99275.31
2023-05-19T02:57:44.543Z,99268.34
2023-05-19T03:00:12.110Z,99269.19
2023-05-19T03:02:39.931Z,99263.06
2023-05-19T03:05:08.067Z,99282.22
2023-05-19T03:07:35.150Z,99272.66
2023-05-19T03:10:04.289Z,99276.97
2023-05-19T03:12:31.745Z,99273.50
2023-05-19T03:14:58.354Z,99274.34
2023-05-19T03:17:25.247Z,99273.47
2023-05-19T03:19:52.280Z,99278.69
2023-05-19T03:22:21.015Z,99278.69
2023-05-19T03:24:50.053Z,99272.59
2023-05-19T03:27:16.813Z,99273.44
2023-05-19T03:29:43.530Z,99278.69
2023-05-19T03:32:10.220Z,99279.53
2023-05-19T03:34:37.007Z,99276.91
2023-05-19T03:37:03.668Z,99279.53
2023-05-19T03:39:30.496Z,99276.94
2023-05-19T03:41:57.142Z,99278.69
2023-05-19T03:44:23.737Z,99286.50
2023-05-19T03:46:50.425Z,99280.34
2023-05-19T03:49:17.195Z,99280.34
2023-05-19T03:51:44.433Z,99277.75
2023-05-19T03:54:11.364Z,99285.56
2023-05-19T03:56:39.982Z,99281.22
2023-05-19T03:59:07.670Z,99276.91
2023-05-19T04:01:34.305Z,99286.50
2023-05-19T04:04:01.070Z,99280.44
2023-05-19T04:06:27.681Z,99282.22
2023-05-19T04:08:54.327Z,99282.22
2023-05-19T04:11:21.616Z,99281.31
2023-05-19T04:13:48.313Z,99283.94
2023-05-19T04:16:15.366Z,99278.69
2023-05-19T04:18:42.611Z,99276.09
2023-05-19T04:21:09.257Z,99282.19
2023-05-19T04:23:35.822Z,99274.38
2023-05-19T04:26:03.768Z,99285.72
2023-05-19T04:28:30.418Z,99284.00
2023-05-19T04:30:58.983Z,99284.00
2023-05-19T04:33:25.708Z,99285.75
2023-05-19T04:35:52.473Z,99280.53
2023-05-19T04:38:20.296Z,99283.16
2023-05-19T04:40:50.482Z,99285.78
2023-05-19T04:43:18.329Z,99291.03
2023-05-19T04:45:45.129Z,99291.00
2023-05-19T04:48:12.409Z,99291.88
2023-05-19T04:50:42.327Z,99289.28
2023-05-19T04:53:09.989Z,99292.75
2023-05-19T04:55:37.762Z,99293.59
2023-05-19T04:58:04.585Z,99294.44
2023-05-19T05:00:31.838Z,99290.91
2023-05-19T05:02:59.203Z,99290.00
2023-05-19T05:05:25.930Z,99288.22
2023-05-19T05:07:54.289Z,99289.03
2023-05-19T05:10:21.886Z,99284.59
2023-05-19T05:12:49.133Z,99284.56
2023-05-19T05:15:16.308Z,99282.72
2023-05-19T05:17:43.867Z,99283.47
2023-05-19T05:20:12.763Z,99288.63
2023-05-19T05:22:40.071Z,99283.34
2023-05-19T05:25:07.920Z,99276.22
2023-05-19T05:27:34.612Z,99277.81
2023-05-19T05:30:01.211Z,99282.97
2023-05-19T05:32:28.016Z,99286.44
2023-05-19T05:34:54.819Z,99293.34
2023-05-19T05:37:21.470Z,99287.88
2023-05-19T05:39:48.157Z,99284.25
2023-05-19T05:42:14.861Z,99296.38
2023-05-19T05:44:41.484Z,99288.31
2023-05-19T05:47:08.771Z,99296.75
2023-05-19T05:49:39.353Z,99292.22
2023-05-19T05:52:08.174Z,99295.50
2023-05-19T05:54:35.173Z,99293.31
2023-05-19T05:57:02.798Z,99298.13
2023-05-19T05:59:29.438Z,99299.44
2023-05-19T06:01:56.311Z,99297.00
2023-05-19T06:04:22.936Z,99288.81
2023-05-19T06:06:49.582Z,99292.06
2023-05-19T06:09:16.532Z,99291.84
2023-05-19T06:11:43.191Z,99300.53
2023-05-19T06:14:10.245Z,99304.72
2023-05-19T06:16:37.000Z,99296.09
2023-05-19T06:19:03.726Z,99290.91
2023-05-19T06:21:30.874Z,99294.75
2023-05-19T06:23:57.430Z,99295.72
2023-05-19T06:26:24.075Z,99295.63
2023-05-19T06:28:50.638Z,99293.53
2023-05-19T06:31:17.648Z,99295.41
2023-05-19T06:33:44.341Z,99286.00
2023-05-19T06:36:11.197Z,99293.16
2023-05-19T06:38:37.752Z,99287.41
2023-05-19T06:41:04.500Z,99288.56
2023-05-19T06:43:31.224Z,99284.09
2023-05-19T06:45:57.867Z,99284.03
2023-05-19T06:48:24.642Z,99290.41
2023-05-19T06:50:51.839Z,99286.31
2023-05-19T06:53:20.037Z,99290.28
2023-05-19T06:55:58.094Z,99287.66
2023-05-19T06:58:26.972Z,99288.78
2023-05-19T07:00:53.702Z,99278.09
2023-05-19T07:03:20.405Z,99279.28
2023-05-19T07:05:47.614Z,99287.44
2023-05-19T07:08:14.191Z,99282.06
2023-05-19T07:10:40.940Z,99272.34
2023-05-19T07:13:07.722Z,99285.81
2023-05-19T07:15:34.426Z,99285.63
2023-05-19T07:18:01.206Z,99293.47
2023-05-19T07:20:27.777Z,99283.63
2023-05-19T07:22:54.541Z,99280.22
2023-05-19T07:25:21.256Z,99281.06
2023-05-19T07:27:47.928Z,99284.41
2023-05-19T07:30:14.535Z,99277.91
2023-05-19T07:32:41.159Z,99276.06
2023-05-19T07:35:08.124Z,99283.75
2023-05-19T07:37:34.913Z,99276.56
2023-05-19T07:40:01.607Z,99278.63
2023-05-19T07:42:28.258Z,99284.41
2023-05-19T07:44:54.911Z,99277.84
2023-05-19T07:47:21.708Z,99273.47
2023-05-19T07:49:50.391Z,99268.84
2023-05-19T07:52:18.489Z,99268.19
2023-05-19T07:54:46.367Z,99264.28
2023-05-19T07:57:14.687Z,99261.44
2023-05-19T07:59:41.422Z,99265.38
2023-05-19T08:02:08.117Z,99267.44
2023-05-19T08:04:34.864Z,99263.81
2023-05-19T08:07:01.709Z,99260.69
2023-05-19T08:09:28.400Z,99262.84
2023-05-19T08:11:55.238Z,99256.75
2023-05-19T08:14:22.982Z,99253.56
2023-05-19T08:16:50.265Z,99240.47
2023-05-19T08:19:16.941Z,99247.66
2023-05-19T08:21:44.791Z,99248.72
2023-05-19T08:24:11.783Z,99247.19
2023-05-19T08:26:38.508Z,99244.34
2023-05-19T08:29:05.175Z,99237.44
2023-05-19T08:31:31.836Z,99243.00
2023-05-19T08:33:58.938Z,99242.81
2023-05-19T08:36:25.922Z,99231.75
2023-05-19T08:38:52.696Z,99233.41
2023-05-19T08:41:19.651Z,99229.94
2023-05-19T08:43:46.681Z,99229.16
2023-05-19T08:46:16.454Z,99223.84
2023-05-19T08:48:44.914Z,99210.66
2023-05-19T08:51:25.635Z,99214.50
2023-05-19T08:53:55.629Z,99210.69
2023-05-19T08:56:24.350Z,99215.44
2023-05-19T08:58:51.726Z,99202.00
2023-05-19T09:01:20.051Z,99213.59
2023-05-19T09:03:50.209Z,99215.78
2023-05-19T09:06:17.323Z,99220.69
2023-05-19T09:08:44.523Z,99211.28
2023-05-19T09:11:11.261Z,99214.78
2023-05-19T09:13:37.951Z,99213.47
2023-05-19T09:16:04.946Z,99208.81
2023-05-19T09:18:32.079Z,99205.72
2023-05-19T09:21:03.210Z,99194.88
2023-05-19T09:23:34.187Z,99192.66
2023-05-19T09:26:07.769Z,99195.16
2023-05-19T09:28:36.486Z,99196.09
2023-05-19T09:31:11.097Z,99186.03
2023-05-19T09:33:39.731Z,99195.19
2023-05-19T09:36:08.632Z,99192.72
2023-05-19T09:38:36.521Z,99182.06
2023-05-19T09:41:06.115Z,99189.16
2023-05-19T09:43:34.710Z,99194.84
2023-05-19T09:46:09.617Z,99194.88
2023-05-19T09:48:37.873Z,99189.75
2023-05-19T09:51:08.162Z,99189.97
2023-05-19T09:53:35.412Z,99197.53
2023-05-19T09:56:04.253Z,99195.31
2023-05-19T09:58:35.630Z,99186.34
2023-05-19T10:01:03.836Z,99186.53
2023-05-19T10:03:32.986Z,99180.31
2023-05-19T10:06:01.656Z,99186.22
2023-05-19T10:08:30.817Z,99180.22
2023-05-19T10:10:58.620Z,99179.53
2023-05-19T10:13:25.998Z,99168.94
2023-05-19T10:18:25.841Z,99165.50
2023-05-19T10:20:52.882Z,99164.16
2023-05-19T10:23:19.596Z,99166.56
2023-05-19T10:25:47.969Z,99165.84
2023-05-19T10:28:18.564Z,99161.59
2023-05-19T10:30:47.789Z,99155.41
2023-05-19T10:33:18.295Z,99165.44
2023-05-19T10:35:51.132Z,99149.56
2023-05-19T10:38:44.761Z,99155.81
2023-05-19T10:41:22.876Z,99147.31
2023-05-19T10:44:01.662Z,99158.78
2023-05-19T10:46:30.241Z,99147.50
2023-05-19T10:48:57.306Z,99141.72
2023-05-19T10:51:33.930Z,99144.22
2023-05-19T10:54:11.016Z,99143.25
2023-05-19T10:56:42.687Z,99144.88
2023-05-19T10:59:33.500Z,99138.03
2023-05-19T11:02:04.955Z,99138.34
2023-05-19T11:04:51.794Z,99137.63
2023-05-19T11:07:24.676Z,99129.38
2023-05-19T11:09:54.510Z,99124.06
2023-05-19T11:12:24.627Z,99124.66
2023-05-19T11:14:55.806Z,99126.81
2023-05-19T11:17:25.309Z,99129.66
2023-05-19T11:19:56.879Z,99134.22
2023-05-19T11:22:26.203Z,99122.53
2023-05-19T11:24:55.246Z,99115.56
2023-05-19T11:27:32.946Z,99111.41
2023-05-19T11:30:02.134Z,99116.66
2023-05-19T11:32:30.949Z,99110.09
2023-05-19T11:34:58.224Z,99103.88
2023-05-19T11:37:25.462Z,99103.72
2023-05-19T11:39:53.150Z,99103.47
2023-05-19T11:42:19.804Z,99097.06
2023-05-19T11:44:47.128Z,99089.72
2023-05-19T11:47:15.057Z,99099.84
2023-05-19T11:49:46.086Z,99107.19
2023-05-19T11:52:13.080Z,99102.75
2023-05-19T11:54:41.933Z,99102.66
2023-05-19T11:57:14.190Z,99100.03
2023-05-19T11:59:45.640Z,99102.41
2023-05-19T12:02:25.284Z,99107.66
2023-05-19T12:04:52.486Z,99109.34
2023-05-19T12:07:23.192Z,99121.50
2023-05-19T12:09:51.172Z,99116.03
2023-05-19T12:12:20.024Z,99125.34
2023-05-19T12:14:48.006Z,99119.09
2023-05-19T12:17:19.985Z,99116.69
2023-05-19T12:19:50.381Z,99111.31
2023-05-19T12:22:17.954Z,99110.59
2023-05-19T12:24:45.649Z,99105.56
2023-05-19T12:27:20.991Z,99103.13
2023-05-19T12:29:52.546Z,99107.44
2023-05-19T12:32:23.470Z,99101.56
2023-05-19T12:34:50.467Z,99099.31
2023-05-19T12:37:17.688Z,99092.44
2023-05-19T12:39:44.473Z,99098.94
2023-05-19T12:42:15.120Z,99095.09
2023-05-19T12:44:46.924Z,99090.44
2023-05-19T12:47:19.877Z,99090.81
2023-05-19T12:49:59.258Z,99098.97
2023-05-19T12:52:27.796Z,99102.75
2023-05-19T12:55:08.112Z,99097.50
2023-05-19T12:57:35.706Z,99093.72
2023-05-19T13:00:06.998Z,99079.25
2023-05-19T13:02:36.484Z,99083.44
2023-05-19T13:05:04.963Z,99092.69
2023-05-19T13:07:31.607Z,99087.28
2023-05-19T13:09:58.800Z,99087.44
2023-05-19T13:12:26.252Z,99096.53
2023-05-19T13:14:55.571Z,99090.28
2023-05-19T13:17:22.402Z,99092.09
2023-05-19T13:19:49.435Z,99088.56
2023-05-19T13:22:16.107Z,99089.59
2023-05-19T13:24:42.737Z,99093.72
2023-05-19T13:27:09.392Z,99098.13
2023-05-19T13:29:36.392Z,99083.81
2023-05-19T13:32:03.050Z,99077.50
2023-05-19T13:34:29.774Z,99082.13
2023-05-19T13:36:56.835Z,99073.78
2023-05-19T13:39:23.621Z,99072.66
2023-05-19T13:41:50.695Z,99056.97
2023-05-19T13:44:17.434Z,99071.09
2023-05-19T13:46:46.116Z,99056.25
2023-05-19T13:49:13.751Z,99063.91
2023-05-19T13:51:43.805Z,99064.72
2023-05-19T13:54:10.729Z,99067.50
2023-05-19T13:56:37.642Z,99063.84
2023-05-19T13:59:04.382Z,99063.72
2023-05-19T14:01:31.046Z,99071.44
2023-05-19T14:03:57.862Z,99061.72
2023-05-19T14:06:24.890Z,99060.84
2023-05-19T14:08:51.524Z,99055.75
2023-05-19T14:11:21.888Z,99061.16
2023-05-19T14:13:53.089Z,99050.22
2023-05-19T14:16:22.075Z,99046.31
2023-05-19T14:18:49.392Z,99047.41
2023-05-19T14:21:16.206Z,99047.28
2023-05-19T14:23:42.931Z,99052.47
2023-05-19T14:26:09.603Z,99046.50
2023-05-19T14:28:36.236Z,99036.28
2023-05-19T14:31:03.343Z,99042.44
2023-05-19T14:33:34.931Z,99052.56
2023-05-19T14:36:02.196Z,99040.91
2023-05-19T14:38:29.477Z,99051.78
2023-05-19T14:40:56.533Z,99048.06
2023-05-19T14:43:23.325Z,99049.31
2023-05-19T14:45:49.975Z,99044.47
2023-05-19T14:48:17.632Z,99051.34
2023-05-19T14:50:44.610Z,99060.78
2023-05-19T14:53:11.314Z,99056.56
2023-05-19T14:55:38.043Z,99047.72
2023-05-19T14:58:10.193Z,99050.44
2023-05-19T15:00:48.166Z,99048.38
2023-05-19T15:03:15.015Z,99046.50
2023-05-19T15:05:41.633Z,99038.81
2023-05-19T15:08:08.350Z,99043.69
2023-05-19T15:10:35.157Z,99035.28
2023-05-19T15:13:01.897Z,99029.72
2023-05-19T15:15:28.566Z,99037.41
2023-05-19T15:17:55.200Z,99023.88
2023-05-19T15:20:21.866Z,99028.94
2023-05-19T15:22:49.215Z,99024.09
2023-05-19T15:25:16.070Z,99021.41
2023-05-19T15:27:42.775Z,99016.72
2023-05-19T15:30:09.724Z,99011.88
2023-05-19T15:32:36.704Z,99014.94
2023-05-19T15:35:03.503Z,99019.31
2023-05-19T15:37:30.288Z,99014.94
2023-05-19T15:39:56.948Z,99010.66
2023-05-19T15:42:23.817Z,99022.63
2023-05-19T15:44:50.427Z,99014.78
2023-05-19T15:47:17.321Z,99018.84
2023-05-19T15:49:44.150Z,99011.59
2023-05-19T15:52:10.759Z,99012.59
2023-05-19T15:54:37.433Z,99009.84
2023-05-19T15:57:04.199Z,99003.03
2023-05-19T15:59:31.021Z,99007.88
2023-05-19T16:01:57.970Z,99012.25
2023-05-19T16:04:24.935Z,99010.66
2023-05-19T16:06:51.739Z,99004.78
2023-05-19T16:09:18.318Z,99005.22
2023-05-19T16:11:45.014Z,99003.50
2023-05-19T16:14:11.657Z,98999.66
2023-05-19T16:16:38.376Z,99002.34
2023-05-19T16:19:05.241Z,99001.78
2023-05-19T16:21:32.325Z,99014.72
2023-05-19T16:23:59.062Z,99002.91
2023-05-19T16:26:26.587Z,99012.59
2023-05-19T16:28:53.219Z,98995.91
2023-05-19T16:31:20.279Z,98998.34
2023-05-19T16:33:47.087Z,98990.00
2023-05-19T16:36:13.675Z,98998.09
2023-05-19T16:38:40.292Z,98996.56
2023-05-19T16:41:10.999Z,98992.69
2023-05-19T16:43:37.857Z,99001.91
2023-05-19T16:46:05.485Z,98998.69
2023-05-19T16:48:32.185Z,99006.78
2023-05-19T16:50:59.541Z,98998.09
2023-05-19T16:53:26.228Z,99002.03
2023-05-19T16:55:53.000Z,99001.69
2023-05-19T16:58:19.716Z,98998.56
2023-05-19T17:00:46.489Z,98999.78
2023-05-19T17:03:13.265Z,98995.53
2023-05-19T17:05:42.017Z,99009.56
2023-05-19T17:08:08.634Z,99009.56
2023-05-19T17:10:36.135Z,99001.59
2023-05-19T17:13:02.960Z,99009.56
2023-05-19T17:15:30.552Z,99012.50
2023-05-19T17:17:57.270Z,99007.03
2023-05-19T17:20:23.909Z,99009.31
2023-05-19T17:22:50.548Z,99017.66
2023-05-19T17:25:17.186Z,99017.81
2023-05-19T17:27:43.925Z,99007.59
2023-05-19T17:30:10.940Z,99018.50
2023-05-19T17:32:39.618Z,99021.72
2023-05-19T17:35:07.048Z,99018.38
2023-05-19T17:37:33.792Z,99018.50
2023-05-19T17:40:00.512Z,99013.16
2023-05-19T17:42:29.190Z,99022.81
2023-05-19T17:44:55.986Z,99022.91
2023-05-19T17:47:22.538Z,99026.63
2023-05-19T17:49:50.223Z,99018.47
2023-05-19T17:52:19.286Z,99023.75
2023-05-19T17:54:46.220Z,99018.63
2023-05-19T17:57:17.228Z,99022.34
2023-05-19T17:59:44.194Z,99024.56
2023-05-19T18:02:12.082Z,99033.44
2023-05-19T18:04:38.961Z,99032.31
2023-05-19T18:07:09.109Z,99026.28
2023-05-19T18:09:38.511Z,99031.72
2023-05-19T18:12:06.361Z,99022.06
2023-05-19T18:14:32.952Z,99031.22
2023-05-19T18:17:00.780Z,99030.31
2023-05-19T18:19:27.439Z,99023.19
2023-05-19T18:21:54.098Z,99023.22
2023-05-19T18:24:20.819Z,99026.28
2023-05-19T18:26:47.636Z,99021.69
2023-05-19T18:29:14.828Z,99028.91
2023-05-19T18:31:41.789Z,99029.03
2023-05-19T18:34:08.684Z,99024.94
2023-05-19T18:36:35.782Z,99027.88
2023-05-19T18:39:02.567Z,99020.84
2023-05-19T18:41:29.163Z,99015.75
2023-05-19T18:43:55.790Z,99023.63
2023-05-19T18:46:22.457Z,99024.00
2023-05-19T18:48:50.800Z,99028.09
2023-05-19T18:51:19.880Z,99029.09
2023-05-19T18:53:48.757Z,99020.88
2023-05-19T18:56:26.176Z,99017.00
2023-05-19T18:58:54.226Z,99028.19
2023-05-19T19:01:20.923Z,99026.78
2023-05-19T19:03:49.370Z,99035.16
2023-05-19T19:06:20.963Z,99036.44
2023-05-19T19:08:47.705Z,99034.28
2023-05-19T19:11:14.393Z,99032.53
2023-05-19T19:13:41.059Z,99020.88
2023-05-19T19:16:08.222Z,99036.16
2023-05-19T19:18:36.641Z,99034.56
2023-05-19T19:21:05.902Z,99026.59
2023-05-19T19:23:32.742Z,99038.31
2023-05-19T19:25:59.433Z,99036.31
2023-05-19T19:28:26.588Z,99039.22
2023-05-19T19:30:53.308Z,99046.06
2023-05-19T19:33:20.025Z,99050.00
2023-05-19T19:35:49.805Z,99055.34
2023-05-19T19:38:16.657Z,99057.81
2023-05-19T19:40:43.356Z,99056.94
2023-05-19T19:43:09.982Z,99050.50
2023-05-19T19:45:39.290Z,99055.78
2023-05-19T19:48:07.306Z,99058.88
2023-05-19T19:50:34.708Z,99062.44
2023-05-19T19:53:01.651Z,99052.13
2023-05-19T19:55:29.970Z,99059.53
2023-05-19T19:57:57.074Z,99061.19
2023-05-19T20:00:23.921Z,99059.91
2023-05-19T20:03:02.953Z,99062.47
2023-05-19T20:05:31.031Z,99063.56
2023-05-19T20:07:57.982Z,99056.41
2023-05-19T20:10:24.683Z,99058.22
2023-05-19T20:12:52.046Z,99063.91
2023-05-19T20:15:19.562Z,99062.44
2023-05-19T20:17:46.343Z,99070.41
2023-05-19T20:20:13.358Z,99071.28
2023-05-19T20:22:40.278Z,99062.34
2023-05-19T20:25:07.357Z,99057.78
2023-05-19T20:27:33.983Z,99068.97
2023-05-19T20:30:00.922Z,99072.38
2023-05-19T20:32:27.705Z,99062.59
2023-05-19T20:34:54.379Z,99063.06
2023-05-19T20:37:22.318Z,99070.78
2023-05-19T20:39:48.954Z,99067.94
2023-05-19T20:42:15.778Z,99073.66
2023-05-19T20:44:42.820Z,99066.44
2023-05-19T20:47:09.714Z,99071.81
2023-05-19T20:49:36.649Z,99070.53
2023-05-19T20:52:03.446Z,99066.91
2023-05-19T20:54:30.385Z,99066.16
2023-05-19T20:56:56.979Z,99059.09
2023-05-19T20:59:23.818Z,99064.47
2023-05-19T21:01:50.749Z,99071.44
2023-05-19T21:04:17.434Z,99066.47
2023-05-19T21:06:44.100Z,99063.66
2023-05-19T21:09:10.867Z,99062.53
2023-05-19T21:11:37.713Z,99062.81
2023-05-19T21:14:04.591Z,99069.22
2023-05-19T21:16:31.583Z,99067.63
2023-05-19T21:18:58.464Z,99058.03
2023-05-19T21:21:26.279Z,99053.72
2023-05-19T21:23:52.980Z,99055.84
2023-05-19T21:26:19.630Z,99054.19
2023-05-19T21:28:46.323Z,99056.09
2023-05-19T21:31:12.935Z,99058.97
2023-05-19T21:33:39.552Z,99053.59
2023-05-19T21:36:06.477Z,99049.47
2023-05-19T21:38:33.120Z,99052.94
2023-05-19T21:40:59.845Z,99051.25
2023-05-19T21:43:26.683Z,99060.03
2023-05-19T21:45:53.364Z,99059.16
2023-05-19T21:48:20.003Z,99059.94
2023-05-19T21:50:46.683Z,99051.44
2023-05-19T21:53:13.252Z,99061.81
2023-05-19T21:55:39.884Z,99054.03
2023-05-19T21:58:06.716Z,99067.19
2023-05-19T22:00:33.641Z,99062.00
2023-05-19T22:03:00.461Z,99064.84
2023-05-19T22:05:29.641Z,99073.63
2023-05-19T22:07:56.450Z,99068.53
2023-05-19T22:10:23.185Z,99069.19
2023-05-19T22:12:49.933Z,99079.91
2023-05-19T22:15:16.626Z,99075.94
2023-05-19T22:17:43.416Z,99082.13
2023-05-19T22:20:10.642Z,99072.47
2023-05-19T22:22:37.393Z,99069.09
2023-05-19T22:25:04.892Z,99069.09
2023-05-19T22:27:31.651Z,99067.69
2023-05-19T22:29:59.921Z,99068.63
2023-05-19T22:32:26.698Z,99071.97
2023-05-19T22:34:53.605Z,99068.31
2023-05-19T22:37:22.939Z,99070.19
2023-05-19T22:39:49.624Z,99070.06
2023-05-19T22:42:16.335Z,99062.84
2023-05-19T22:44:43.903Z,99061.25
2023-05-19T22:47:13.655Z,99065.47
2023-05-19T22:49:43.528Z,99063.19
2023-05-19T22:52:11.206Z,99075.63
2023-05-19T22:54:38.056Z,99064.81
2023-05-19T22:57:05.294Z,99063.19
2023-05-19T22:59:32.076Z,99061.59
2023-05-19T23:01:58.735Z,99059.69
2023-05-19T23:04:25.502Z,99056.41
2023-05-19T23:06:52.398Z,99054.78
2023-05-19T23:09:19.188Z,99058.25
2023-05-19T23:11:46.330Z,99060.88
2023-05-19T23:14:12.932Z,99054.75
2023-05-19T23:16:39.543Z,99061.88
2023-05-19T23:19:06.289Z,99066.28
2023-05-19T23:21:33.122Z,99070.56
2023-05-19T23:24:00.164Z,99068.06
2023-05-19T23:26:27.175Z,99068.06
2023-05-19T23:28:54.132Z,99074.91
2023-05-19T23:31:20.870Z,99068.19
2023-05-19T23:33:47.455Z,99068.09
2023-05-19T23:36:14.214Z,99072.34
2023-05-19T23:38:41.008Z,99061.97
2023-05-19T23:41:07.749Z,99066.31
2023-05-19T23:43:34.404Z,99064.59
2023-05-19T23:46:01.814Z,99058.66
2023-05-19T23:48:29.484Z,99062.22
2023-05-19T23:50:57.456Z,99056.69
2023-05-19T23:53:24.426Z,99063.94
2023-05-19T23:55:51.706Z,99063.81
2023-05-19T23:58:18.646Z,99060.34
